METAR Data
IDs: Format: Raw Decoded Include TAF

Data at: 0231 UTC 25 Jan 2020

PAII 250156Z AUTO 01014G23KT 10SM CLR M14/M18 A2973 RMK AO2 SLP066 T11441183 FZRANO
PAII 250056Z AUTO 36015G23KT 10SM CLR M14/M18 A2973 RMK AO2 SLP068 T11391178 FZRANO
PAII 242356Z AUTO 36015G23KT 10SM CLR M14/M18 A2974 RMK AO2 SLP071 T11391183 11139 21167 58017 FZRANO
PAII 242256Z AUTO 36015G21KT 10SM CLR M14/M18 A2976 RMK AO2 SLP077 T11391178 FZRANO
PAII 242156Z AUTO 36014G21KT 10SM CLR M14/M18 A2978 RMK AO2 SLP082 T11441178 FZRANO
PAII 242056Z AUTO 35013G23KT 10SM CLR M14/M18 A2979 RMK AO2 SLP087 T11441178 58002 FZRANO
PAII 241956Z AUTO 36013G19KT 10SM CLR M15/M18 A2979 RMK AO2 SLP087 T11501178 FZRANO
PAII 241856Z AUTO 35010G15KT 10SM CLR M16/M19 A2980 RMK AO2 SLP090 T11611189 FZRANO
PAII 241756Z AUTO 36008KT 10SM CLR M16/M19 A2980 RMK AO2 SLP090 T11611189 11144 21167 56011 FZRANO
PAII 241656Z AUTO 35008KT 10SM CLR M16/M19 A2981 RMK AO2 SLP093 T11611189 FZRANO
PAII 241556Z AUTO 34010KT 10SM CLR M15/M18 A2982 RMK AO2 SLP096 T11501178 FZRANO
PAII 241456Z AUTO 33010G16KT 10SM CLR M15/M18 A2983 RMK AO2 SLP101 T11501178 56014 FZRANO
PAII 241356Z AUTO 34011KT 10SM CLR M15/M18 A2984 RMK AO2 SLP104 T11501178 FZRANO
PAII 241256Z AUTO 33013G17KT 10SM CLR M14/M17 A2985 RMK AO2 SLP108 T11441172 FZRANO
PAII 241156Z AUTO 33009KT 10SM CLR M15/M18 A2987 RMK AO2 SLP115 T11501178 11144 21161 58009 FZRANO
PAII 241056Z AUTO 33009KT 10SM CLR M14/M17 A2988 RMK AO2 SLP119 T11441172 FZRANO
PAII 240956Z AUTO 33011KT 10SM CLR M14/M17 A2989 RMK AO2 SLP120 T11441167 FZRANO
PAII 240856Z AUTO 32010KT 10SM CLR M15/M17 A2990 RMK AO2 SLP124 T11501167 411221194 55010 FZRANO
PAII 240756Z AUTO 33010KT 10SM CLR M16/M18 A2990 RMK AO2 SLP123 T11561178 FZRANO
PAII 240656Z AUTO 34009KT 10SM CLR M14/M17 A2991 RMK AO2 SLP128 T11441167 FZRANO
PAII 240556Z AUTO 34007KT 10SM CLR M16/M17 A2993 RMK AO2 SLP134 60000 T11561172 11128 21161 56003 FZRANO
PAII 240456Z AUTO 34009KT 10SM CLR M15/M17 A2993 RMK AO2 SLP134 T11501172 FZRANO
PAII 240356Z AUTO 34009KT 10SM CLR M15/M17 A2993 RMK AO2 SLP136 T11501172 FZRANO
PAII 240256Z AUTO 32007KT 10SM CLR M16/M18 A2994 RMK AO2 SNB22E33 SLP137 P0000 60000 T11611183 55005 FZRANO
PAII 240156Z AUTO 33007KT 10SM CLR M15/M18 A2993 RMK AO2 SLP134 T11501183 FZRANO
PAII 240056Z AUTO 36005KT 10SM CLR M14/M17 A2994 RMK AO2 SLP140 T11391167 FZRANO
PAII 232356Z AUTO 35005KT 10SM CLR M14/M17 A2995 RMK AO2 SLP142 60000 T11441172 11144 21183 55002 FZRANO
PAII 232256Z AUTO 01007KT 10SM CLR M14/M17 A2994 RMK AO2 SLP139 T11441167 FZRANO
PAII 232156Z AUTO 34005KT 10SM CLR M15/M17 A2996 RMK AO2 SLP145 T11501172 FZRANO
PAII 232056Z AUTO 01004KT 10SM CLR M16/M18 A2996 RMK AO2 SLP144 60000 T11611178 53017 FZRANO
PAII 231956Z AUTO 02005KT 10SM CLR M16/M18 A2994 RMK AO2 SLP139 T11611178 FZRANO
PAII 231856Z AUTO 36006KT 10SM CLR M17/M19 A2992 RMK AO2 SNE34 SLP131 P0000 T11671189 FZRANO
PAII 231756Z AUTO 34004KT 9SM -SN CLR M18/M20 A2991 RMK AO2 SNB1659 SLP127 P0000 60000 T11781200 11133 21194 53013 FZRANO
PAII 231656Z AUTO 35006KT 10SM CLR M19/M21 A2989 RMK AO2 SNE50 SLP122 P0000 T11891211 FZRANO
PAII 231556Z AUTO 35006KT 9SM -SN CLR M18/M20 A2988 RMK AO2 SNE10B43 SLP120 P0000 T11831200 FZRANO
PAII 231456Z AUTO 36010KT 9SM -SN CLR M18/M20 A2987 RMK AO2 SLP114 P0000 60000 T11781200 53015 FZRANO